Portada
METAR-TAF:

METAR-TAF

Aeroports :

Aeroport Internacional de Tòquio

Tòquio Haneda, Japó

latitud: 35-33N, longitud: 139-47E, altitud: 5 m

Observació

L'informe es va fer fa 29 minuts, a les 10:30 UTC
Vent 14 kt del Nord
Temperatura 12°C
Humitat 71%
Pressió 1026 hPa
Visibilitat 10 km o més
Escasses núvols a una alçada de 4000 ft
Cel cobert a una alçada de 16000 ft

METAR: RJTT 061030Z 36014KT 9999 FEW040 OVC160 12/07 Q1026 NOSIG RMK 1SC040 8AS160 A3032

Hora: 19:59 (10:59 UTC)

Pronòstic

L'informe es va fer fa 5 hores i 52 minuts, a les 05:07 UTC
Pronòstic vàlid del 06 a les 06 UTC al 07 a les 12 UTC
Vent 12 kt del Nord
Visibilitat 10 km o més
Escasses núvols a una alçada de 2000 ft
Cel ennuvolat a una alçada de 5000 ft
Evolucionant progressivament
l' 07 a les 09 UTC al 07 a les 12 UTC
Vent 24 kt del Nord/Nord-Est

TAF: RJTT 060507Z 0606/0712 36012KT 9999 FEW020 BKN050 BECMG 0709/0712 02024KT

Observacions i pronòstics meteorològics de més de 4000 aeroports (METAR i TAF).

Les estacions disponibles són els punts grocs i vermells al mapa.

Posi el ratolí al punt desitjat per veure el nom de l'estació.

Feu clic per veure les observacions i els pronòstics meteorològics.

Per canviar el mapa: feu clic els botons verds amb una creu de color negre per apropar; al botó verd amb un guió per allunyar la imatge; o en les fletxes verdes per a mapes adjacents.


METAR-TAF: